Time;durP1;ratioP1;P1;durP2;ratioP2;P2;SDS_P1;SDS_P2;PMS_P1;PMS_P2;Temp;Humidity;BMP_temperature;BMP_pressure;BME280_temperature;BME280_humidity;BME280_pressure;Samples;Min_cycle;Max_cycle;Signal;HPM_P1;HPM_P2
2022/12/24 00:01:33;;;;;;;12.00;2.60;;;13.60;99.90;;;;;;4956202;28;20184;-74
2022/12/24 00:04:04;;;;;;;11.57;2.53;;;13.60;99.90;;;;;;4958971;28;20176;-75
2022/12/24 00:06:29;;;;;;;10.75;2.25;;;13.60;99.90;;;;;;4948573;29;20173;-76
2022/12/24 00:08:57;;;;;;;9.90;2.28;;;13.50;99.90;;;;;;4949535;29;20215;-74
2022/12/24 00:11:25;;;;;;;11.20;2.28;;;13.50;99.90;;;;;;4959818;28;20180;-75
2022/12/24 00:13:53;;;;;;;8.20;2.40;;;13.50;99.90;;;;;;4965483;28;20192;-77
2022/12/24 00:16:19;;;;;;;8.40;2.20;;;13.50;99.90;;;;;;4940527;29;20176;-75
2022/12/24 00:18:45;;;;;;;10.35;2.05;;;13.40;99.90;;;;;;4945849;29;20219;-75
2022/12/24 00:21:13;;;;;;;7.85;2.20;;;13.40;99.90;;;;;;4945920;28;20176;-75
2022/12/24 00:23:43;;;;;;;11.48;2.30;;;13.30;99.90;;;;;;4945357;28;20211;-75
2022/12/24 00:26:09;;;;;;;10.02;2.05;;;13.30;99.90;;;;;;4951226;29;20172;-76
2022/12/24 00:28:35;;;;;;;8.20;2.30;;;13.30;99.90;;;;;;4954356;28;20241;-72
2022/12/24 00:31:10;;;;;;;7.80;2.00;;;13.20;99.90;;;;;;4959190;28;20176;-73
2022/12/24 00:33:35;;;;;;;10.15;2.13;;;13.20;99.90;;;;;;4958660;28;20182;-75
2022/12/24 00:36:01;;;;;;;8.57;2.20;;;13.20;99.90;;;;;;4949945;29;20180;-74
2022/12/24 00:38:27;;;;;;;9.15;2.40;;;13.10;99.90;;;;;;4945555;28;20227;-75
2022/12/24 00:41:22;;;;;;;8.07;2.17;;;13.10;99.90;;;;;;4967623;28;20196;-75
2022/12/24 00:43:55;;;;;;;7.95;1.70;;;13.10;99.90;;;;;;4941508;29;20242;-75
2022/12/24 00:46:24;;;;;;;6.13;1.65;;;13.10;99.90;;;;;;4959449;28;20262;-75
2022/12/24 00:48:50;;;;;;;6.43;2.00;;;13.10;99.90;;;;;;4958980;28;20220;-75
2022/12/24 00:51:16;;;;;;;6.85;1.73;;;13.10;99.90;;;;;;4941269;28;20418;-75
2022/12/24 00:53:44;;;;;;;8.70;1.67;;;13.10;99.90;;;;;;4966375;28;20239;-74
2022/12/24 00:56:14;;;;;;;7.50;2.00;;;13.10;99.90;;;;;;4948681;28;20196;-75
2022/12/24 00:58:40;;;;;;;8.20;2.00;;;13.10;99.90;;;;;;4959232;28;20323;-74
2022/12/24 01:01:08;;;;;;;6.72;2.10;;;13.10;99.90;;;;;;4957405;28;20219;-73
2022/12/24 01:03:38;;;;;;;7.78;1.83;;;13.10;99.90;;;;;;4940668;28;20180;-75
2022/12/24 01:06:12;;;;;;;8.63;2.08;;;13.10;99.90;;;;;;4952839;28;20368;-74
2022/12/24 01:08:41;;;;;;;9.25;2.00;;;13.10;99.90;;;;;;4950378;28;20194;-74
2022/12/24 01:11:08;;;;;;;11.05;2.53;;;13.10;99.90;;;;;;4950990;29;20267;-74
2022/12/24 01:13:37;;;;;;;7.57;2.03;;;13.20;99.90;;;;;;4947758;28;20203;-75
2022/12/24 01:16:05;;;;;;;8.05;1.80;;;13.20;99.90;;;;;;4962943;28;20180;-76
2022/12/24 01:18:31;;;;;;;9.07;2.10;;;13.20;99.90;;;;;;4962622;28;20215;-75
2022/12/24 01:21:04;;;;;;;5.88;1.55;;;13.20;99.90;;;;;;4962725;28;20183;-75
2022/12/24 01:23:30;;;;;;;7.82;2.10;;;13.20;99.90;;;;;;4978385;28;20200;-75
2022/12/24 01:26:00;;;;;;;4.90;1.50;;;13.20;99.90;;;;;;4962307;28;20184;-75
2022/12/24 01:28:26;;;;;;;7.95;1.63;;;13.20;99.90;;;;;;4962573;28;20212;-75
2022/12/24 01:30:52;;;;;;;7.57;1.63;;;13.20;99.90;;;;;;4962846;28;20168;-75
2022/12/24 01:33:20;;;;;;;7.03;1.63;;;13.20;99.90;;;;;;4959555;28;20183;-75
2022/12/24 01:35:46;;;;;;;9.35;1.63;;;13.20;99.90;;;;;;4962566;28;20200;-73
2022/12/24 01:38:12;;;;;;;7.60;1.90;;;13.20;99.90;;;;;;4959216;28;20193;-75
2022/12/24 01:43:29;;;;;;;5.97;1.70;;;13.20;99.90;;;;;;4960090;28;20211;-75
2022/12/24 01:46:27;;;;;;;8.20;2.25;;;13.20;99.90;;;;;;4943600;28;20295;-74
2022/12/24 01:49:00;;;;;;;7.35;1.83;;;13.30;99.90;;;;;;4956579;28;20246;-74
2022/12/24 01:51:28;;;;;;;7.20;1.63;;;13.30;99.90;;;;;;4955530;28;20210;-75
2022/12/24 01:54:01;;;;;;;7.22;1.63;;;13.20;99.90;;;;;;4955425;29;20177;-74
2022/12/24 01:56:31;;;;;;;7.35;1.83;;;13.20;99.90;;;;;;4959567;28;20208;-76
2022/12/24 01:59:01;;;;;;;8.00;2.05;;;13.20;99.90;;;;;;4942831;29;20184;-75
2022/12/24 02:01:30;;;;;;;6.82;1.88;;;13.20;99.90;;;;;;4948682;29;20200;-76
2022/12/24 02:03:55;;;;;;;4.18;1.58;;;13.20;99.90;;;;;;4942966;29;20180;-75
2022/12/24 02:06:24;;;;;;;6.78;1.67;;;13.20;99.90;;;;;;4958182;28;20244;-76
2022/12/24 02:08:52;;;;;;;7.07;1.50;;;13.20;99.90;;;;;;4955693;28;20205;-75
2022/12/24 02:11:22;;;;;;;8.70;1.98;;;13.10;99.90;;;;;;4945737;28;20183;-75
2022/12/24 02:13:56;;;;;;;7.15;1.98;;;13.20;99.90;;;;;;4959264;28;20176;-75
2022/12/24 02:16:54;;;;;;;5.63;1.83;;;13.20;99.90;;;;;;4954068;28;20172;-75
2022/12/24 02:19:44;;;;;;;9.55;1.90;;;13.20;99.90;;;;;;4954378;28;20262;-75
2022/12/24 02:22:28;;;;;;;6.28;1.73;;;13.20;99.90;;;;;;4955824;29;20453;-74
2022/12/24 02:25:16;;;;;;;5.40;1.80;;;13.10;99.90;;;;;;4950461;28;20176;-75
2022/12/24 02:28:15;;;;;;;5.20;1.50;;;13.10;99.90;;;;;;4943625;28;20474;-74
2022/12/24 02:30:47;;;;;;;6.18;1.65;;;13.10;99.90;;;;;;4942440;29;20181;-75
2022/12/24 02:33:32;;;;;;;6.22;1.70;;;13.00;99.90;;;;;;4960123;28;20226;-76
2022/12/24 02:36:10;;;;;;;6.57;1.55;;;13.00;99.90;;;;;;4950460;29;20172;-75
2022/12/24 02:38:48;;;;;;;5.25;1.67;;;13.00;99.90;;;;;;4950737;28;20176;-74
2022/12/24 02:42:04;;;;;;;4.68;1.50;;;12.90;99.90;;;;;;4943831;28;20176;-75
2022/12/24 02:44:23;;;;;;;6.32;1.55;;;12.90;99.90;;;;;;4977668;28;20211;-75
2022/12/24 02:46:50;;;;;;;6.70;1.40;;;12.90;99.90;;;;;;4942128;29;20196;-74
2022/12/24 02:49:18;;;;;;;6.85;1.80;;;12.90;99.90;;;;;;4961042;28;20200;-75
2022/12/24 02:51:46;;;;;;;6.93;1.50;;;12.90;99.90;;;;;;4960938;28;20172;-75
2022/12/24 02:54:13;;;;;;;6.45;1.35;;;12.90;99.90;;;;;;4958003;29;20188;-75
2022/12/24 02:56:51;;;;;;;5.15;1.40;;;12.90;99.90;;;;;;4943387;29;20204;-75
2022/12/24 02:59:40;;;;;;;8.38;1.85;;;12.90;99.90;;;;;;4949527;28;20180;-75
2022/12/24 03:02:08;;;;;;;5.88;1.52;;;12.90;99.90;;;;;;4957865;28;20445;-75
2022/12/24 03:04:46;;;;;;;7.90;1.30;;;12.90;99.90;;;;;;4960346;28;20176;-75
2022/12/24 03:07:27;;;;;;;4.78;1.27;;;12.90;99.90;;;;;;4953578;28;20258;-75
2022/12/24 03:10:12;;;;;;;3.97;1.40;;;12.90;99.90;;;;;;4945716;28;20196;-75
2022/12/24 03:12:45;;;;;;;3.80;1.10;;;12.90;99.90;;;;;;4927888;29;20205;-75
2022/12/24 03:15:14;;;;;;;4.90;1.58;;;12.90;99.90;;;;;;4949827;29;20227;-75
2022/12/24 03:17:46;;;;;;;6.13;1.60;;;12.90;99.90;;;;;;4951644;28;20202;-75
2022/12/24 03:20:17;;;;;;;5.10;1.33;;;12.90;99.90;;;;;;4960676;28;20195;-75
2022/12/24 03:22:43;;;;;;;5.15;1.30;;;12.90;99.90;;;;;;4951965;29;20207;-75
2022/12/24 03:25:09;;;;;;;6.40;1.75;;;12.80;99.90;;;;;;4955154;28;20177;-76
2022/12/24 03:27:37;;;;;;;6.63;1.75;;;12.80;99.90;;;;;;4953112;28;20197;-76
2022/12/24 03:30:07;;;;;;;6.25;1.58;;;12.70;99.90;;;;;;4948169;28;20184;-77
2022/12/24 03:32:33;;;;;;;6.93;1.75;;;12.60;99.90;;;;;;4954284;28;20214;-76
2022/12/24 03:34:58;;;;;;;5.07;1.38;;;12.40;99.90;;;;;;4957212;28;20196;-76
2022/12/24 03:37:25;;;;;;;4.40;1.20;;;12.30;99.90;;;;;;4956771;28;20184;-76
2022/12/24 03:39:53;;;;;;;4.68;1.52;;;12.20;99.90;;;;;;4954655;29;20199;-77
2022/12/24 03:42:19;;;;;;;6.70;1.23;;;12.10;99.90;;;;;;4946809;28;20279;-76
2022/12/24 03:44:44;;;;;;;7.10;1.70;;;12.10;99.90;;;;;;4960152;28;20263;-77
2022/12/24 03:47:12;;;;;;;2.40;1.08;;;12.00;99.90;;;;;;4944577;29;20181;-77
2022/12/24 03:49:40;;;;;;;3.90;1.25;;;11.90;99.90;;;;;;4948987;28;20207;-77
2022/12/24 03:52:08;;;;;;;4.05;1.42;;;11.90;99.90;;;;;;4958085;28;20180;-77
2022/12/24 03:54:36;;;;;;;4.57;1.30;;;11.90;99.90;;;;;;4949061;28;20172;-77
2022/12/24 03:57:01;;;;;;;5.82;1.45;;;11.90;99.90;;;;;;4956942;29;20257;-77
2022/12/24 03:59:29;;;;;;;5.68;1.27;;;11.80;99.90;;;;;;4958306;28;20247;-76
2022/12/24 04:01:55;;;;;;;3.05;1.00;;;11.80;99.90;;;;;;4966958;28;20180;-75
2022/12/24 04:04:23;;;;;;;5.45;1.25;;;11.80;99.90;;;;;;4955605;28;20183;-76
2022/12/24 04:06:51;;;;;;;5.32;1.30;;;11.80;99.90;;;;;;4940988;29;20266;-76
2022/12/24 04:09:19;;;;;;;4.75;1.58;;;11.80;99.90;;;;;;4951618;28;20203;-76
2022/12/24 04:11:44;;;;;;;3.80;1.10;;;11.80;99.90;;;;;;4957061;28;20224;-76
2022/12/24 04:14:12;;;;;;;4.05;1.42;;;11.90;99.90;;;;;;4960181;28;20226;-77
2022/12/24 04:16:40;;;;;;;3.67;1.08;;;11.80;99.90;;;;;;4951075;28;20203;-77
2022/12/24 04:19:06;;;;;;;3.75;1.50;;;11.70;99.90;;;;;;4959346;28;20183;-76
2022/12/24 04:21:34;;;;;;;5.75;1.30;;;11.70;99.90;;;;;;4954137;28;20184;-77
2022/12/24 04:23:59;;;;;;;4.50;1.52;;;11.70;99.90;;;;;;4956961;28;20176;-76
2022/12/24 04:26:27;;;;;;;4.35;1.20;;;11.60;99.90;;;;;;4959084;28;20196;-75
2022/12/24 04:28:55;;;;;;;3.13;1.20;;;11.50;99.90;;;;;;4975010;28;20251;-75
2022/12/24 04:31:23;;;;;;;3.97;1.13;;;11.40;99.90;;;;;;4956591;28;20191;-75
2022/12/24 04:33:53;;;;;;;3.20;0.80;;;11.40;99.90;;;;;;4955387;28;20200;-76
2022/12/24 04:36:22;;;;;;;1.92;1.02;;;11.30;99.90;;;;;;4949720;29;20177;-74
2022/12/24 04:38:50;;;;;;;2.47;0.90;;;11.20;99.90;;;;;;4940333;29;20207;-75
2022/12/24 04:41:21;;;;;;;2.05;0.82;;;11.20;99.90;;;;;;4958303;28;20172;-74
2022/12/24 04:43:47;;;;;;;2.92;1.08;;;11.10;99.90;;;;;;4956727;28;20232;-73
2022/12/24 04:46:18;;;;;;;2.58;0.90;;;11.00;99.90;;;;;;4949099;28;20172;-75
2022/12/24 04:48:50;;;;;;;0.70;0.40;;;10.90;99.90;;;;;;4955840;29;20228;-74
2022/12/24 04:51:21;;;;;;;0.80;0.57;;;10.90;99.90;;;;;;4972020;28;20239;-74
2022/12/24 04:53:47;;;;;;;1.42;0.65;;;10.90;99.90;;;;;;4974985;28;20172;-74
2022/12/24 04:56:18;;;;;;;1.85;0.73;;;10.90;99.90;;;;;;4950348;28;20176;-74
2022/12/24 04:58:44;;;;;;;3.45;1.08;;;10.90;99.90;;;;;;4940349;29;20188;-74
2022/12/24 05:01:17;;;;;;;1.52;0.77;;;10.80;99.90;;;;;;4949477;28;20298;-74
2022/12/24 05:03:48;;;;;;;2.22;0.80;;;10.70;99.90;;;;;;4949864;28;20181;-74
2022/12/24 05:06:18;;;;;;;1.35;0.77;;;10.80;99.90;;;;;;4940264;29;20208;-74
2022/12/24 05:08:45;;;;;;;2.95;0.90;;;10.80;99.90;;;;;;4958644;28;20204;-74
2022/12/24 05:11:15;;;;;;;1.55;0.70;;;10.80;99.90;;;;;;4950995;29;20211;-74
2022/12/24 05:13:44;;;;;;;3.17;0.63;;;10.80;99.90;;;;;;4953911;28;20179;-75
2022/12/24 05:16:11;;;;;;;1.33;0.80;;;10.80;99.90;;;;;;4958600;28;20259;-75
2022/12/24 05:18:41;;;;;;;1.90;0.77;;;10.80;99.90;;;;;;4974339;28;20199;-75
2022/12/24 05:21:14;;;;;;;2.33;0.68;;;10.80;99.90;;;;;;4956299;28;20267;-74
2022/12/24 05:26:29;;;;;;;2.20;1.00;;;10.80;99.90;;;;;;4961200;28;20179;-75
2022/12/24 05:28:57;;;;;;;2.22;1.00;;;10.80;99.90;;;;;;4949159;28;20211;-75
2022/12/24 05:31:24;;;;;;;2.63;0.82;;;10.80;99.90;;;;;;4958640;28;20258;-75
2022/12/24 05:33:53;;;;;;;3.20;0.93;;;10.80;99.90;;;;;;4957514;28;20200;-75
2022/12/24 05:36:22;;;;;;;2.88;0.93;;;10.90;99.90;;;;;;4957590;28;20164;-76
2022/12/24 05:38:50;;;;;;;3.58;1.00;;;10.90;99.90;;;;;;4939824;29;20291;-75
2022/12/24 05:41:15;;;;;;;4.35;1.00;;;11.00;99.90;;;;;;4952691;28;20189;-75
2022/12/24 05:43:41;;;;;;;5.03;1.67;;;11.00;99.90;;;;;;4958267;28;20183;-75
2022/12/24 05:46:17;;;;;;;5.55;1.00;;;11.00;99.90;;;;;;4949545;29;20177;-75
2022/12/24 05:48:43;;;;;;;5.43;1.20;;;11.10;99.90;;;;;;4946840;28;20211;-75
2022/12/24 05:51:11;;;;;;;4.82;1.10;;;11.30;99.90;;;;;;4955270;29;20177;-75
2022/12/24 05:53:42;;;;;;;2.67;1.05;;;11.10;99.90;;;;;;4957030;28;20241;-76
2022/12/24 05:56:10;;;;;;;4.50;1.55;;;11.20;99.90;;;;;;4961179;28;20188;-75
2022/12/24 05:58:38;;;;;;;2.55;1.23;;;11.20;99.90;;;;;;4962339;28;20207;-76
2022/12/24 06:01:05;;;;;;;3.67;1.13;;;11.20;99.90;;;;;;4947400;29;20200;-75
2022/12/24 06:03:31;;;;;;;2.88;1.10;;;11.20;99.90;;;;;;4956643;28;20174;-76
2022/12/24 06:06:06;;;;;;;4.38;1.10;;;11.30;99.90;;;;;;4958554;28;20203;-75
2022/12/24 06:08:34;;;;;;;4.93;1.10;;;11.30;99.90;;;;;;4961949;28;20206;-75
2022/12/24 06:11:01;;;;;;;2.83;1.00;;;11.40;99.90;;;;;;4971584;28;20283;-75
2022/12/24 06:13:27;;;;;;;4.95;0.90;;;11.40;99.90;;;;;;4950631;28;20176;-75
2022/12/24 06:16:04;;;;;;;2.30;0.80;;;11.40;99.90;;;;;;4943932;28;20177;-76
2022/12/24 06:18:35;;;;;;;3.65;1.38;;;11.40;99.90;;;;;;4945696;28;20240;-76
2022/12/24 06:21:01;;;;;;;3.97;1.10;;;11.40;99.90;;;;;;4961643;28;20215;-76
2022/12/24 06:23:30;;;;;;;3.50;1.00;;;11.40;99.90;;;;;;4961397;28;20252;-76
2022/12/24 06:25:59;;;;;;;2.47;0.95;;;11.50;99.90;;;;;;4942933;29;20188;-75
2022/12/24 06:28:28;;;;;;;2.10;1.10;;;11.40;99.90;;;;;;4956577;28;20235;-76
2022/12/24 06:30:54;;;;;;;1.45;0.80;;;11.40;99.90;;;;;;4961671;28;20192;-75
2022/12/24 06:33:19;;;;;;;2.78;0.98;;;11.40;99.90;;;;;;4959924;28;20196;-75
2022/12/24 06:35:46;;;;;;;1.40;0.70;;;11.50;99.90;;;;;;4952302;28;20195;-75
2022/12/24 06:38:13;;;;;;;2.75;0.80;;;11.50;99.90;;;;;;4969590;28;20291;-75
2022/12/24 06:40:42;;;;;;;3.15;0.90;;;11.50;99.90;;;;;;4977254;28;20183;-76
2022/12/24 06:43:12;;;;;;;3.38;1.00;;;11.50;99.90;;;;;;4961107;28;20204;-76
2022/12/24 06:45:40;;;;;;;2.28;1.08;;;11.50;99.90;;;;;;4944849;29;20205;-75
2022/12/24 06:48:08;;;;;;;3.40;0.88;;;11.50;99.90;;;;;;4953161;28;20196;-75
2022/12/24 06:50:35;;;;;;;3.72;1.10;;;11.50;99.90;;;;;;4957999;28;20196;-74
2022/12/24 06:53:01;;;;;;;2.92;1.15;;;11.50;99.90;;;;;;4957325;29;20518;-75
2022/12/24 06:55:30;;;;;;;4.43;1.35;;;11.50;99.90;;;;;;4958290;28;20192;-75
2022/12/24 06:57:58;;;;;;;2.83;1.20;;;11.60;99.90;;;;;;4961018;28;20264;-75
2022/12/24 07:00:23;;;;;;;4.43;1.02;;;11.60;99.90;;;;;;4946988;28;20196;-75
2022/12/24 07:02:49;;;;;;;5.95;1.60;;;11.60;99.90;;;;;;4960748;28;20178;-76
2022/12/24 07:05:17;;;;;;;7.28;1.52;;;11.60;99.90;;;;;;4960548;28;20168;-75
2022/12/24 07:07:44;;;;;;;4.80;2.05;;;11.60;99.90;;;;;;4958286;28;20179;-75
2022/12/24 07:10:11;;;;;;;6.75;1.75;;;11.60;99.90;;;;;;4942023;29;20184;-75
2022/12/24 07:12:39;;;;;;;4.90;1.40;;;11.60;99.90;;;;;;4959796;28;20215;-75
2022/12/24 07:15:06;;;;;;;4.35;1.20;;;11.70;99.90;;;;;;4960362;28;20190;-75
2022/12/24 07:17:31;;;;;;;4.85;1.33;;;11.70;99.90;;;;;;4976349;28;22084;-75
2022/12/24 07:19:57;;;;;;;5.43;1.27;;;11.60;99.90;;;;;;4963410;28;20275;-74
2022/12/24 07:22:25;;;;;;;4.63;1.38;;;11.60;99.90;;;;;;4955149;28;20232;-75
2022/12/24 07:24:55;;;;;;;6.95;1.52;;;11.60;99.90;;;;;;4960666;28;20243;-75
2022/12/24 07:27:21;;;;;;;4.95;1.55;;;11.60;99.90;;;;;;4958534;28;20201;-75
2022/12/24 07:29:48;;;;;;;5.15;1.50;;;11.60;99.90;;;;;;4957874;28;20251;-75
2022/12/24 07:32:14;;;;;;;3.53;1.27;;;11.60;99.90;;;;;;4960827;28;20172;-75
2022/12/24 07:34:40;;;;;;;5.22;1.45;;;11.60;99.90;;;;;;4957268;28;20281;-75
2022/12/24 07:37:08;;;;;;;6.10;1.60;;;11.60;99.90;;;;;;4943454;28;20199;-75
2022/12/24 07:39:33;;;;;;;5.32;1.50;;;11.50;99.90;;;;;;4948183;29;20201;-75
2022/12/24 07:41:59;;;;;;;7.38;1.70;;;11.60;99.90;;;;;;4954479;28;20194;-75
2022/12/24 07:44:25;;;;;;;6.28;1.52;;;11.50;99.90;;;;;;4957903;28;20208;-75
2022/12/24 07:46:50;;;;;;;5.47;1.65;;;11.50;99.90;;;;;;4943025;29;20181;-75
2022/12/24 07:49:16;;;;;;;7.30;1.80;;;11.50;99.90;;;;;;4945373;29;20219;-75
2022/12/24 07:51:42;;;;;;;6.82;1.67;;;11.50;99.90;;;;;;4945970;28;20218;-73
2022/12/24 07:54:07;;;;;;;6.82;1.60;;;11.60;99.90;;;;;;4941310;29;20176;-75
2022/12/24 07:56:33;;;;;;;4.05;1.38;;;11.50;99.90;;;;;;4958653;28;20175;-74
2022/12/24 07:58:59;;;;;;;4.68;1.65;;;11.50;99.90;;;;;;4959710;28;20214;-75
2022/12/24 08:01:27;;;;;;;7.07;1.73;;;11.50;99.90;;;;;;4955452;29;20292;-74
2022/12/24 08:03:55;;;;;;;5.70;1.75;;;11.50;99.90;;;;;;4959056;28;20172;-74
2022/12/24 08:06:23;;;;;;;8.38;2.03;;;11.50;99.90;;;;;;4946672;28;20208;-75
2022/12/24 08:08:51;;;;;;;8.70;1.95;;;11.50;99.90;;;;;;4948068;28;20204;-74
2022/12/24 08:11:16;;;;;;;5.63;1.88;;;11.50;99.90;;;;;;4947678;28;20180;-74
2022/12/24 08:13:42;;;;;;;7.28;1.95;;;11.50;99.90;;;;;;4947175;28;20340;-74
2022/12/24 08:16:07;;;;;;;5.90;1.65;;;11.50;99.90;;;;;;4959214;28;20188;-74
2022/12/24 08:18:36;;;;;;;7.88;2.00;;;11.50;99.90;;;;;;4956964;28;20198;-74
2022/12/24 08:21:01;;;;;;;5.25;1.60;;;11.60;99.90;;;;;;4959442;28;20184;-74
2022/12/24 08:23:27;;;;;;;7.18;1.98;;;11.60;99.90;;;;;;4949448;28;20196;-74
2022/12/24 08:25:53;;;;;;;5.85;1.75;;;11.60;99.90;;;;;;4956706;28;20192;-74
2022/12/24 08:28:19;;;;;;;6.50;1.90;;;11.60;99.90;;;;;;4957334;28;20222;-75
2022/12/24 08:30:51;;;;;;;6.85;2.13;;;11.70;99.90;;;;;;4952932;28;20179;-75
2022/12/24 08:33:21;;;;;;;6.13;1.60;;;11.70;99.90;;;;;;4965765;28;20196;-74
2022/12/24 08:35:50;;;;;;;7.68;1.77;;;11.70;99.90;;;;;;4940346;29;20236;-74
2022/12/24 08:38:18;;;;;;;8.50;2.40;;;11.80;99.90;;;;;;4940946;28;20212;-75
2022/12/24 08:40:47;;;;;;;8.23;2.60;;;11.90;99.90;;;;;;4955379;28;20176;-75
2022/12/24 08:43:15;;;;;;;6.95;2.13;;;11.90;99.90;;;;;;4948203;29;20252;-74
2022/12/24 08:45:42;;;;;;;11.93;2.13;;;12.00;99.90;;;;;;4950739;28;20209;-74
2022/12/24 08:48:09;;;;;;;8.95;2.00;;;11.90;99.90;;;;;;4953588;28;20207;-75
2022/12/24 08:50:37;;;;;;;7.32;2.35;;;12.00;99.90;;;;;;4959267;28;20464;-74
2022/12/24 08:53:03;;;;;;;7.20;2.00;;;12.10;99.90;;;;;;4946549;29;20177;-74
2022/12/24 08:55:28;;;;;;;9.90;2.80;;;12.10;99.90;;;;;;4959086;28;20222;-74
2022/12/24 08:57:54;;;;;;;10.30;2.40;;;12.20;99.90;;;;;;4973565;28;20168;-74
2022/12/24 09:00:20;;;;;;;5.28;1.77;;;12.30;99.90;;;;;;4948851;28;20200;-74
2022/12/24 09:02:48;;;;;;;11.73;2.13;;;12.40;99.90;;;;;;4956750;28;20210;-73
2022/12/24 09:05:14;;;;;;;8.32;1.95;;;12.50;99.90;;;;;;4958549;28;20168;-73
2022/12/24 09:07:39;;;;;;;6.22;1.60;;;12.50;99.90;;;;;;4958660;28;20186;-74
2022/12/24 09:10:06;;;;;;;6.13;1.98;;;12.60;99.90;;;;;;4963578;28;20260;-73
2022/12/24 09:12:31;;;;;;;7.57;2.05;;;12.60;99.90;;;;;;4949670;28;20192;-73
2022/12/24 09:14:57;;;;;;;7.43;1.98;;;12.70;99.90;;;;;;4970237;28;20180;-73
2022/12/24 09:17:23;;;;;;;8.90;2.05;;;12.70;99.90;;;;;;4958873;28;20191;-72
2022/12/24 09:19:48;;;;;;;9.65;2.13;;;12.80;99.90;;;;;;4963932;28;20270;-74
2022/12/24 09:22:14;;;;;;;9.20;2.20;;;12.80;99.90;;;;;;4954481;28;20210;-73
2022/12/24 09:24:42;;;;;;;7.15;2.22;;;12.80;99.90;;;;;;4959131;28;20235;-73
2022/12/24 09:27:10;;;;;;;5.20;1.90;;;12.90;99.90;;;;;;4964387;28;20191;-73
2022/12/24 09:29:39;;;;;;;6.25;1.88;;;12.90;99.90;;;;;;4954673;28;20200;-73
2022/12/24 09:32:08;;;;;;;7.15;2.17;;;13.00;99.90;;;;;;4945742;29;20187;-73
2022/12/24 09:34:34;;;;;;;7.35;2.35;;;13.10;99.90;;;;;;4951785;28;22303;-73
2022/12/24 09:37:02;;;;;;;8.02;2.45;;;13.10;99.90;;;;;;4948232;28;20180;-72
2022/12/24 09:39:30;;;;;;;8.32;2.15;;;13.20;99.90;;;;;;4956349;28;20216;-73
2022/12/24 09:42:08;;;;;;;8.45;2.10;;;13.20;99.90;;;;;;4963903;28;20341;-72
2022/12/24 09:45:03;;;;;;;8.52;2.03;;;13.30;99.90;;;;;;4953763;28;20197;-74
2022/12/24 09:47:56;;;;;;;10.90;2.45;;;13.40;99.90;;;;;;4951303;28;20271;-74
2022/12/24 09:50:22;;;;;;;10.40;2.33;;;13.50;99.90;;;;;;4967522;28;20192;-74
2022/12/24 09:52:51;;;;;;;12.23;2.17;;;13.60;99.90;;;;;;4944456;29;20271;-73
2022/12/24 09:55:27;;;;;;;8.45;2.15;;;13.60;99.90;;;;;;4942996;29;20201;-74
2022/12/24 09:57:56;;;;;;;10.45;2.53;;;13.70;99.90;;;;;;4943068;29;20192;-74
2022/12/24 10:00:32;;;;;;;9.63;2.40;;;13.70;99.90;;;;;;4961628;28;20204;-74
2022/12/24 10:03:00;;;;;;;10.35;2.60;;;13.70;99.90;;;;;;4954244;28;20180;-74
2022/12/24 10:05:40;;;;;;;12.15;2.70;;;13.70;99.90;;;;;;4944894;29;20176;-74
2022/12/24 10:08:19;;;;;;;10.05;2.67;;;13.70;99.90;;;;;;4943110;29;20179;-74
2022/12/24 10:11:06;;;;;;;13.75;2.47;;;13.70;99.90;;;;;;4944817;29;20176;-74
2022/12/24 10:13:31;;;;;;;7.25;2.00;;;13.70;99.90;;;;;;4954009;28;20243;-74
2022/12/24 10:16:11;;;;;;;9.25;2.70;;;13.70;99.90;;;;;;4977782;28;20172;-73
2022/12/24 10:18:42;;;;;;;9.05;2.40;;;13.70;99.90;;;;;;4959368;28;20192;-75
2022/12/24 10:21:46;;;;;;;15.05;3.53;;;13.70;99.90;;;;;;4951087;28;20179;-74
2022/12/24 10:24:25;;;;;;;10.93;2.95;;;13.70;99.90;;;;;;4964873;28;20176;-74
2022/12/24 10:27:00;;;;;;;9.77;2.38;;;13.70;99.90;;;;;;4958310;28;20258;-74
2022/12/24 10:29:36;;;;;;;9.57;2.40;;;13.70;99.90;;;;;;4974412;28;20263;-74
2022/12/24 10:32:16;;;;;;;12.45;2.58;;;13.70;99.90;;;;;;4959034;28;20186;-73
2022/12/24 10:34:57;;;;;;;9.52;2.33;;;13.70;99.90;;;;;;4958915;28;20195;-74
2022/12/24 10:37:28;;;;;;;10.40;2.10;;;13.70;99.90;;;;;;4959825;28;20172;-74
2022/12/24 10:39:56;;;;;;;7.63;2.47;;;13.70;99.90;;;;;;4961308;28;20195;-74
2022/12/24 10:42:33;;;;;;;9.43;2.40;;;13.70;99.90;;;;;;4958005;28;20226;-74
2022/12/24 10:45:02;;;;;;;10.25;2.40;;;13.70;99.90;;;;;;4942306;28;20204;-72
2022/12/24 10:47:32;;;;;;;11.25;2.25;;;13.70;99.90;;;;;;4957147;28;20172;-74
2022/12/24 10:50:17;;;;;;;8.30;1.80;;;13.70;99.90;;;;;;4956535;29;20219;-75
2022/12/24 10:52:44;;;;;;;11.20;2.35;;;13.70;99.90;;;;;;4955530;28;20268;-73
2022/12/24 10:55:13;;;;;;;10.80;2.53;;;13.80;99.90;;;;;;4958339;28;20196;-75
2022/12/24 10:57:42;;;;;;;11.82;2.28;;;13.80;99.90;;;;;;4961519;28;20430;-76
2022/12/24 11:00:21;;;;;;;8.05;2.08;;;13.80;99.90;;;;;;4944486;28;20204;-74
2022/12/24 11:03:05;;;;;;;8.63;2.30;;;13.80;99.90;;;;;;4960138;28;20227;-75
2022/12/24 11:05:35;;;;;;;8.25;1.80;;;13.80;99.90;;;;;;4960417;28;20186;-75
2022/12/24 11:08:16;;;;;;;7.60;2.30;;;13.80;99.90;;;;;;4974568;28;20180;-75
2022/12/24 11:10:54;;;;;;;5.70;2.08;;;13.80;99.90;;;;;;4945059;28;20179;-76
2022/12/24 11:13:25;;;;;;;8.88;2.53;;;13.80;99.90;;;;;;4948926;28;20196;-76
2022/12/24 11:16:14;;;;;;;8.50;2.15;;;13.80;99.90;;;;;;4941631;29;20268;-75
2022/12/24 11:19:01;;;;;;;9.35;2.28;;;13.80;99.90;;;;;;4944943;28;20274;-74
2022/12/24 11:21:30;;;;;;;9.80;2.28;;;13.90;99.90;;;;;;4975140;28;20199;-74
2022/12/24 11:23:59;;;;;;;9.93;2.35;;;13.90;99.90;;;;;;4946848;28;20231;-75
2022/12/24 11:26:28;;;;;;;11.20;2.28;;;14.00;99.90;;;;;;4960179;28;20176;-74
2022/12/24 11:29:23;;;;;;;8.00;2.35;;;14.00;99.90;;;;;;4957429;28;20200;-75
2022/12/24 11:31:51;;;;;;;7.78;2.25;;;14.10;99.90;;;;;;4951792;28;20267;-75
2022/12/24 11:34:33;;;;;;;8.90;2.30;;;14.10;99.90;;;;;;4953764;28;20195;-74
2022/12/24 11:37:21;;;;;;;7.95;2.15;;;14.30;99.90;;;;;;4941364;28;20248;-76
2022/12/24 11:39:53;;;;;;;10.27;2.55;;;14.20;99.90;;;;;;4941185;28;20208;-75
2022/12/24 11:42:37;;;;;;;11.25;2.80;;;14.20;99.90;;;;;;4970993;28;20180;-74
2022/12/24 11:45:18;;;;;;;8.65;2.22;;;14.20;99.90;;;;;;4956207;28;20227;-75
2022/12/24 11:47:43;;;;;;;13.32;2.85;;;14.20;99.90;;;;;;4952090;29;20177;-75
2022/12/24 11:50:18;;;;;;;11.27;2.83;;;14.20;99.90;;;;;;4959225;28;20271;-75
2022/12/24 11:52:48;;;;;;;12.45;2.67;;;14.10;99.90;;;;;;4954217;29;20172;-74
2022/12/24 11:55:20;;;;;;;12.50;2.67;;;14.10;99.90;;;;;;4947902;29;20236;-75
2022/12/24 11:58:15;;;;;;;12.52;3.13;;;14.10;99.90;;;;;;4941264;29;20172;-75
2022/12/24 12:00:44;;;;;;;7.07;2.47;;;14.10;99.90;;;;;;4947588;28;20219;-74
2022/12/24 12:03:22;;;;;;;8.50;2.38;;;14.10;99.90;;;;;;4953934;28;20200;-75
2022/12/24 12:05:48;;;;;;;8.48;2.15;;;14.10;99.90;;;;;;4957783;28;20270;-74
2022/12/24 12:08:17;;;;;;;7.38;2.45;;;14.10;99.90;;;;;;4945341;28;20207;-75
2022/12/24 12:10:45;;;;;;;7.88;2.30;;;14.10;99.90;;;;;;4944887;28;20239;-74
2022/12/24 12:13:13;;;;;;;9.15;2.10;;;14.10;99.90;;;;;;4940855;29;20169;-75
2022/12/24 12:16:13;;;;;;;9.50;2.97;;;14.10;99.90;;;;;;4950529;28;20180;-75
2022/12/24 12:18:43;;;;;;;8.77;2.47;;;14.20;99.90;;;;;;4937216;28;20196;-74
2022/12/24 12:21:20;;;;;;;6.57;2.05;;;14.20;99.90;;;;;;4957690;28;20172;-74
2022/12/24 12:24:00;;;;;;;9.82;2.17;;;14.20;99.90;;;;;;4941037;29;20200;-73
2022/12/24 12:26:30;;;;;;;6.57;2.03;;;14.20;99.90;;;;;;4941168;29;20176;-73
2022/12/24 12:29:29;;;;;;;5.38;1.90;;;14.20;99.90;;;;;;4951579;28;20315;-74
2022/12/24 12:32:07;;;;;;;9.52;2.45;;;14.30;99.90;;;;;;4975609;28;20172;-75
2022/12/24 12:34:54;;;;;;;8.88;2.00;;;14.30;99.90;;;;;;4966927;28;20199;-74
2022/12/24 12:37:29;;;;;;;9.88;2.25;;;14.30;99.90;;;;;;4940023;29;20193;-75
2022/12/24 12:39:55;;;;;;;9.80;2.08;;;14.20;99.90;;;;;;4941001;29;20204;-75
2022/12/24 12:42:24;;;;;;;12.90;2.72;;;14.20;99.90;;;;;;4947319;28;20191;-74
2022/12/24 12:45:01;;;;;;;11.07;2.50;;;14.20;99.90;;;;;;4959869;28;20294;-76
2022/12/24 12:47:46;;;;;;;11.38;2.63;;;14.20;99.90;;;;;;4961623;28;20175;-74
2022/12/24 12:50:14;;;;;;;7.47;2.30;;;14.20;99.90;;;;;;4957703;28;20216;-75
2022/12/24 12:52:57;;;;;;;11.73;2.60;;;14.20;99.90;;;;;;4959333;28;20208;-75
2022/12/24 12:55:44;;;;;;;13.65;2.53;;;14.20;99.90;;;;;;4969200;28;20179;-75
2022/12/24 12:58:32;;;;;;;7.28;2.30;;;14.20;99.90;;;;;;4965055;28;20176;-75
2022/12/24 13:01:22;;;;;;;7.97;2.13;;;14.30;99.90;;;;;;4951863;28;20199;-75
2022/12/24 13:03:50;;;;;;;9.15;2.80;;;14.30;99.90;;;;;;4957710;28;20195;-75
2022/12/24 13:06:44;;;;;;;8.30;2.40;;;14.40;99.90;;;;;;4962430;28;20176;-75
2022/12/24 13:09:18;;;;;;;12.57;2.85;;;14.50;99.90;;;;;;4946882;28;20310;-75
2022/12/24 13:11:52;;;;;;;12.30;2.90;;;14.60;99.90;;;;;;4955439;28;20179;-76